createdAt,value
2022-08-30T00:03:00.891Z,4.20
2022-08-30T00:08:05.048Z,4.43
2022-08-30T00:13:12.115Z,3.97
2022-08-30T00:18:18.074Z,3.90
2022-08-30T00:23:21.682Z,4.10
2022-08-30T00:28:26.147Z,3.63
2022-08-30T00:33:29.651Z,3.97
2022-08-30T00:38:32.831Z,3.60
2022-08-30T00:43:38.094Z,4.03
2022-08-30T00:48:46.138Z,4.10
2022-08-30T00:53:54.803Z,4.13
2022-08-30T00:59:03.834Z,3.60
2022-08-30T01:04:09.745Z,4.10
2022-08-30T01:09:13.717Z,3.83
2022-08-30T01:14:18.658Z,4.00
2022-08-30T01:19:32.882Z,4.13
2022-08-30T01:24:37.844Z,4.22
2022-08-30T01:29:41.019Z,4.25
2022-08-30T01:34:44.057Z,4.20
2022-08-30T01:39:48.637Z,4.10
2022-08-30T01:44:52.372Z,4.05
2022-08-30T01:49:55.455Z,4.15
2022-08-30T01:54:59.905Z,4.10
2022-08-30T02:00:03.191Z,4.10
2022-08-30T02:05:07.184Z,4.03
2022-08-30T02:10:12.819Z,4.70
2022-08-30T02:15:16.085Z,4.78
2022-08-30T02:20:19.555Z,3.90
2022-08-30T02:25:24.005Z,4.18
2022-08-30T02:30:27.258Z,4.57
2022-08-30T02:35:30.447Z,4.22
2022-08-30T02:40:35.179Z,4.15
2022-08-30T02:45:42.358Z,4.50
2022-08-30T02:50:48.035Z,4.18
2022-08-30T02:55:52.528Z,4.05
2022-08-30T03:00:55.899Z,4.60
2022-08-30T03:05:59.043Z,4.65
2022-08-30T03:11:03.738Z,4.60
2022-08-30T03:16:06.856Z,4.70
2022-08-30T03:21:12.152Z,4.07
2022-08-30T03:26:16.886Z,4.75
2022-08-30T03:31:19.962Z,4.32
2022-08-30T03:36:23.229Z,4.65
2022-08-30T03:41:27.763Z,5.05
2022-08-30T03:46:34.481Z,4.57
2022-08-30T03:51:39.870Z,4.78
2022-08-30T03:56:44.677Z,4.55
2022-08-30T04:01:47.957Z,4.70
2022-08-30T04:06:51.109Z,4.88
2022-08-30T04:11:55.715Z,5.00
2022-08-30T04:16:59.114Z,5.25
2022-08-30T04:22:02.149Z,4.68
2022-08-30T04:27:06.875Z,4.63
2022-08-30T04:32:10.020Z,5.05
2022-08-30T04:37:13.397Z,4.78
2022-08-30T04:42:18.618Z,4.45
2022-08-30T04:47:21.652Z,4.85
2022-08-30T04:52:25.130Z,5.38
2022-08-30T04:57:29.763Z,4.72
2022-08-30T05:02:33.002Z,5.35
2022-08-30T05:07:36.479Z,5.10
2022-08-30T05:12:41.313Z,4.70
2022-08-30T05:17:44.355Z,4.85
2022-08-30T05:22:50.085Z,5.15
2022-08-30T05:27:58.663Z,4.95
2022-08-30T05:33:01.878Z,4.75
2022-08-30T05:38:04.934Z,6.63
2022-08-30T05:43:26.809Z,6.78
2022-08-30T05:48:33.819Z,6.53
2022-08-30T05:53:37.573Z,6.60
2022-08-30T05:58:42.623Z,6.15
2022-08-30T06:03:45.660Z,9.73
2022-08-30T06:08:49.399Z,6.25
2022-08-30T06:13:54.813Z,6.68
2022-08-30T06:19:00.266Z,6.03
2022-08-30T06:24:05.345Z,6.57
2022-08-30T06:29:10.951Z,6.55
2022-08-30T06:34:14.191Z,7.57
2022-08-30T06:39:17.252Z,7.05
2022-08-30T06:44:21.719Z,6.30
2022-08-30T06:49:24.879Z,8.57
2022-08-30T06:54:27.923Z,8.95
2022-08-30T06:59:32.554Z,6.22
2022-08-30T07:04:35.665Z,6.18
2022-08-30T07:09:43.206Z,7.20
2022-08-30T07:14:48.075Z,6.38
2022-08-30T07:19:51.402Z,5.15
2022-08-30T07:24:54.483Z,15.90
2022-08-30T07:29:59.377Z,6.45
2022-08-30T07:35:02.470Z,5.60
2022-08-30T07:40:06.397Z,11.93
2022-08-30T07:45:12.793Z,9.75
2022-08-30T07:50:15.999Z,6.28
2022-08-30T07:55:19.183Z,12.27
2022-08-30T08:00:23.735Z,54.10
2022-08-30T08:05:26.795Z,30.67
2022-08-30T08:10:29.802Z,23.10
2022-08-30T08:15:35.221Z,13.35
2022-08-30T08:20:38.438Z,12.50
2022-08-30T08:25:42.334Z,8.00
2022-08-30T08:30:48.370Z,5.90
2022-08-30T08:35:51.574Z,5.63
2022-08-30T08:41:04.314Z,15.07
2022-08-30T08:46:15.399Z,15.98
2022-08-30T08:51:39.830Z,9.98
2022-08-30T08:56:43.216Z,8.75
2022-08-30T09:01:50.735Z,7.72
2022-08-30T09:06:58.107Z,6.30
2022-08-30T09:12:01.524Z,6.05
2022-08-30T09:17:08.818Z,11.07
2022-08-30T09:22:27.176Z,6.93
2022-08-30T09:27:34.719Z,7.10
2022-08-30T09:32:41.727Z,6.00
2022-08-30T09:37:50.052Z,6.13
2022-08-30T09:43:07.912Z,8.20
2022-08-30T09:48:31.094Z,11.07
2022-08-30T09:53:37.072Z,9.77
2022-08-30T09:59:01.669Z,8.60
2022-08-30T10:04:16.563Z,7.43
2022-08-30T10:09:28.399Z,6.70
2022-08-30T10:14:45.895Z,12.57
2022-08-30T10:20:01.615Z,18.10
2022-08-30T10:25:11.119Z,12.88
2022-08-30T10:30:20.044Z,12.20
2022-08-30T10:35:27.441Z,11.30
2022-08-30T10:40:52.027Z,7.82
2022-08-30T10:45:59.020Z,19.77
2022-08-30T10:51:10.504Z,11.20
2022-08-30T10:56:18.664Z,9.13
2022-08-30T11:01:46.444Z,9.23
2022-08-30T11:07:01.541Z,10.05
2022-08-30T11:12:39.844Z,8.90
2022-08-30T11:17:48.272Z,7.32
2022-08-30T11:23:36.243Z,6.60
2022-08-30T11:29:06.698Z,8.23
2022-08-30T11:34:11.432Z,9.75
2022-08-30T11:39:46.103Z,9.07
2022-08-30T11:44:50.724Z,6.80
2022-08-30T11:50:09.902Z,6.75
2022-08-30T11:55:42.957Z,6.25
2022-08-30T12:00:51.500Z,6.97
2022-08-30T12:06:00.284Z,6.63
2022-08-30T12:11:05.655Z,5.60
2022-08-30T12:16:12.930Z,5.90
2022-08-30T12:21:29.513Z,8.13
2022-08-30T12:26:39.047Z,7.22
2022-08-30T12:31:48.622Z,12.30
2022-08-30T12:36:55.727Z,11.40
2022-08-30T12:42:17.673Z,8.80
2022-08-30T12:47:26.626Z,8.25
2022-08-30T12:52:34.852Z,5.90
2022-08-30T12:57:40.283Z,6.13
2022-08-30T13:02:48.149Z,6.60
2022-08-30T13:07:52.276Z,5.82
2022-08-30T13:13:06.926Z,13.10
2022-08-30T13:18:26.668Z,11.70
2022-08-30T13:23:30.218Z,10.40
2022-08-30T13:28:43.235Z,21.23
2022-08-30T13:33:53.927Z,12.55
2022-08-30T13:38:57.821Z,11.05
2022-08-30T13:44:16.494Z,8.60
2022-08-30T13:54:49.991Z,6.20
2022-08-30T13:59:53.274Z,6.22
2022-08-30T14:05:02.648Z,5.55
2022-08-30T14:15:30.729Z,5.20
2022-08-30T14:20:38.823Z,5.22
2022-08-30T14:25:42.852Z,5.00
2022-08-30T14:30:46.054Z,4.18
2022-08-30T14:35:55.152Z,3.53
2022-08-30T14:40:58.200Z,3.50
2022-08-30T14:46:03.947Z,3.40
2022-08-30T14:51:15.422Z,3.53
2022-08-30T14:56:20.665Z,3.40
2022-08-30T15:01:23.891Z,3.60
2022-08-30T15:06:29.111Z,3.33
2022-08-30T15:11:33.166Z,3.75
2022-08-30T15:16:38.569Z,3.58
2022-08-30T15:21:45.238Z,3.72
2022-08-30T15:26:49.021Z,3.40
2022-08-30T15:31:52.767Z,4.07
2022-08-30T15:36:58.142Z,5.30
2022-08-30T15:42:01.932Z,3.55
2022-08-30T15:47:05.483Z,4.30
2022-08-30T15:52:10.362Z,3.72
2022-08-30T15:57:13.493Z,4.10
2022-08-30T16:02:16.827Z,3.25
2022-08-30T16:07:21.354Z,3.67
2022-08-30T16:12:24.375Z,3.70
2022-08-30T16:17:27.406Z,3.60
2022-08-30T16:22:31.827Z,3.80
2022-08-30T16:27:35.752Z,3.53
2022-08-30T16:32:39.754Z,3.70
2022-08-30T16:37:45.057Z,3.50
2022-08-30T16:42:49.435Z,3.25
2022-08-30T16:47:52.479Z,3.88
2022-08-30T16:52:56.988Z,3.90
2022-08-30T16:58:00.026Z,3.92
2022-08-30T17:03:03.412Z,3.95
2022-08-30T17:08:08.174Z,3.40
2022-08-30T17:13:11.252Z,3.13
2022-08-30T17:18:14.894Z,4.03
2022-08-30T17:23:19.322Z,3.60
2022-08-30T17:28:22.570Z,3.67
2022-08-30T17:33:25.974Z,3.50
2022-08-30T17:38:30.351Z,3.90
2022-08-30T17:43:34.003Z,3.42
2022-08-30T17:48:38.119Z,3.75
2022-08-30T17:53:42.702Z,3.75
2022-08-30T17:58:47.078Z,3.72
2022-08-30T18:03:57.103Z,3.95
2022-08-30T18:09:07.511Z,3.40
2022-08-30T18:14:11.553Z,3.55
2022-08-30T18:19:16.103Z,3.65
2022-08-30T18:24:20.913Z,3.85
2022-08-30T18:29:29.109Z,3.05
2022-08-30T18:34:33.315Z,3.38
2022-08-30T18:39:37.807Z,3.85
2022-08-30T18:44:43.637Z,3.60
2022-08-30T18:49:47.103Z,3.70
2022-08-30T18:54:52.901Z,3.63
2022-08-30T18:59:56.358Z,3.67
2022-08-30T19:04:59.391Z,3.35
2022-08-30T19:10:04.807Z,3.60
2022-08-30T19:15:10.771Z,3.40
2022-08-30T19:20:16.461Z,3.75
2022-08-30T19:25:23.084Z,3.72
2022-08-30T19:30:29.765Z,3.53
2022-08-30T19:35:33.253Z,3.35
2022-08-30T19:40:37.802Z,4.05
2022-08-30T19:45:42.043Z,4.07
2022-08-30T19:50:45.092Z,4.00
2022-08-30T19:55:52.712Z,3.70
2022-08-30T20:01:10.512Z,3.75
2022-08-30T20:06:17.265Z,3.70
2022-08-30T20:11:22.003Z,3.47
2022-08-30T20:16:33.265Z,3.42
2022-08-30T20:21:40.834Z,4.28
2022-08-30T20:26:45.978Z,4.32
2022-08-30T20:31:49.408Z,4.10
2022-08-30T20:36:52.805Z,4.38
2022-08-30T20:41:59.754Z,4.20
2022-08-30T20:47:03.664Z,23.67
2022-08-30T20:52:06.815Z,12.32
2022-08-30T20:57:14.913Z,8.52
2022-08-30T21:02:17.987Z,11.65
2022-08-30T21:07:21.050Z,11.48
2022-08-30T21:12:25.588Z,10.05
2022-08-30T21:17:30.191Z,7.82
2022-08-30T21:22:33.440Z,7.38
2022-08-30T21:27:37.885Z,6.85
2022-08-30T21:32:40.944Z,5.80
2022-08-30T21:37:44.011Z,4.57
2022-08-30T21:42:50.104Z,4.65
2022-08-30T21:47:53.187Z,4.18
2022-08-30T21:52:56.487Z,4.28
2022-08-30T21:58:00.931Z,3.85
2022-08-30T22:03:04.094Z,3.35
2022-08-30T22:08:07.236Z,3.40
2022-08-30T22:13:13.046Z,3.10
2022-08-30T22:18:16.630Z,3.42
2022-08-30T22:23:20.977Z,2.60
2022-08-30T22:28:25.710Z,2.70
2022-08-30T22:33:28.996Z,2.50
2022-08-30T22:38:32.059Z,2.60
2022-08-30T22:43:36.548Z,2.40
2022-08-30T22:48:41.527Z,2.35
2022-08-30T22:53:45.081Z,2.63
2022-08-30T22:58:49.759Z,2.40
2022-08-30T23:03:53.864Z,2.50
2022-08-30T23:08:56.906Z,2.17
2022-08-30T23:14:01.651Z,2.50
2022-08-30T23:19:06.077Z,2.25
2022-08-30T23:24:26.459Z,2.22
2022-08-30T23:29:48.531Z,2.40
2022-08-30T23:35:08.858Z,1.90
2022-08-30T23:40:31.197Z,2.10
2022-08-30T23:45:53.450Z,1.98
2022-08-30T23:51:21.766Z,2.33
2022-08-30T23:56:42.436Z,2.08
